createdAt,value
2023-03-18T00:00:27.967Z,97667.50
2023-03-18T00:02:57.421Z,97662.63
2023-03-18T00:05:26.519Z,97663.44
2023-03-18T00:07:55.486Z,97658.41
2023-03-18T00:10:25.653Z,97653.38
2023-03-18T00:12:56.524Z,97663.00
2023-03-18T00:15:25.662Z,97663.00
2023-03-18T00:17:55.663Z,97671.84
2023-03-18T00:20:39.125Z,97663.00
2023-03-18T00:23:09.526Z,97666.41
2023-03-18T00:25:40.306Z,97675.44
2023-03-18T00:28:11.508Z,97656.53
2023-03-18T00:30:43.418Z,97656.53
2023-03-18T00:33:13.732Z,97670.59
2023-03-18T00:35:42.818Z,97674.19
2023-03-18T00:38:21.229Z,97671.78
2023-03-18T00:41:01.600Z,97683.00
2023-03-18T00:43:35.946Z,97675.19
2023-03-18T00:46:06.099Z,97681.22
2023-03-18T00:48:36.553Z,97671.78
2023-03-18T00:51:07.468Z,97679.81
2023-03-18T00:53:37.594Z,97664.16
2023-03-18T00:56:07.524Z,97659.09
2023-03-18T00:58:38.305Z,97659.09
2023-03-18T01:01:08.697Z,97651.47
2023-03-18T01:03:38.835Z,97651.84
2023-03-18T01:06:09.339Z,97652.84
2023-03-18T01:08:39.287Z,97653.66
2023-03-18T01:11:09.223Z,97652.25
2023-03-18T01:13:41.290Z,97658.44
2023-03-18T01:16:12.565Z,97654.84
2023-03-18T01:18:43.504Z,97661.06
2023-03-18T01:21:13.755Z,97659.25
2023-03-18T01:23:43.573Z,97659.25
2023-03-18T01:26:12.618Z,97658.63
2023-03-18T01:28:43.794Z,97652.41
2023-03-18T01:31:13.967Z,97653.22
2023-03-18T01:33:42.667Z,97650.63
2023-03-18T01:36:12.687Z,97660.25
2023-03-18T01:38:43.114Z,97665.63
2023-03-18T01:41:13.428Z,97669.88
2023-03-18T01:43:45.609Z,97674.09
2023-03-18T01:46:38.925Z,97661.66
2023-03-18T01:49:13.830Z,97664.66
2023-03-18T01:51:48.436Z,97679.31
2023-03-18T01:54:20.548Z,97674.09
2023-03-18T01:56:52.400Z,97674.91
2023-03-18T01:59:28.576Z,97674.09
2023-03-18T02:02:03.888Z,97668.88
2023-03-18T02:04:39.752Z,97654.84
2023-03-18T02:07:09.912Z,97663.66
2023-03-18T02:09:40.858Z,97654.22
2023-03-18T02:12:13.136Z,97662.25
2023-03-18T02:14:43.815Z,97660.19
2023-03-18T02:17:19.417Z,97661.56
2023-03-18T02:20:04.206Z,97671.16
2023-03-18T02:22:39.897Z,97679.97
2023-03-18T02:25:29.098Z,97669.53
2023-03-18T02:28:04.535Z,97667.16
2023-03-18T02:30:40.054Z,97672.53
2023-03-18T02:33:12.467Z,97662.31
2023-03-18T02:35:47.062Z,97657.69
2023-03-18T02:38:16.560Z,97666.72
2023-03-18T02:40:46.040Z,97666.72
2023-03-18T02:43:24.801Z,97658.69
2023-03-18T02:46:28.627Z,97653.66
2023-03-18T02:48:59.216Z,97657.09
2023-03-18T02:51:29.812Z,97667.53
2023-03-18T02:54:06.973Z,97665.09
2023-03-18T02:56:36.944Z,97667.91
2023-03-18T02:59:09.174Z,97667.91
2023-03-18T03:01:41.705Z,97673.13
2023-03-18T03:04:12.327Z,97661.06
2023-03-18T03:06:43.764Z,97670.69
2023-03-18T03:09:16.230Z,97675.47
2023-03-18T03:11:48.773Z,97674.47
2023-03-18T03:14:19.649Z,97683.28
2023-03-18T03:16:50.184Z,97679.84
2023-03-18T03:19:20.228Z,97674.66
2023-03-18T03:21:50.549Z,97674.47
2023-03-18T03:24:20.045Z,97673.84
2023-03-18T03:26:50.654Z,97673.22
2023-03-18T03:29:21.661Z,97687.25
2023-03-18T03:31:50.731Z,97683.81
2023-03-18T03:34:21.173Z,97687.25
2023-03-18T03:36:50.630Z,97683.03
2023-03-18T03:39:20.419Z,97679.44
2023-03-18T03:41:50.409Z,97688.06
2023-03-18T03:44:21.556Z,97699.47
2023-03-18T03:46:52.148Z,97691.84
2023-03-18T03:49:23.002Z,97688.25
2023-03-18T03:51:53.501Z,97690.06
2023-03-18T03:54:22.798Z,97699.69
2023-03-18T03:56:53.762Z,97707.50
2023-03-18T03:59:24.679Z,97706.84
2023-03-18T04:01:54.588Z,97715.50
2023-03-18T04:04:24.678Z,97720.69
2023-03-18T04:06:54.124Z,97720.09
2023-03-18T04:09:23.925Z,97713.91
2023-03-18T04:11:54.312Z,97722.69
2023-03-18T04:14:25.624Z,97719.28
2023-03-18T04:16:56.621Z,97712.66
2023-03-18T04:19:27.905Z,97723.88
2023-03-18T04:21:58.996Z,97720.63
2023-03-18T04:24:29.112Z,97712.19
2023-03-18T04:26:59.017Z,97718.56
2023-03-18T04:29:29.401Z,97723.00
2023-03-18T04:31:59.751Z,97724.34
2023-03-18T04:34:29.873Z,97725.34
2023-03-18T04:36:59.798Z,97729.13
2023-03-18T04:39:29.901Z,97729.28
2023-03-18T04:41:58.579Z,97729.50
2023-03-18T04:44:30.480Z,97728.69
2023-03-18T04:46:59.847Z,97735.84
2023-03-18T04:49:29.740Z,97725.56
2023-03-18T04:52:00.241Z,97725.28
2023-03-18T04:54:29.996Z,97726.63
2023-03-18T04:57:00.260Z,97723.22
2023-03-18T04:59:31.184Z,97731.22
2023-03-18T05:02:00.933Z,97726.38
2023-03-18T05:04:31.700Z,97729.16
2023-03-18T05:07:01.660Z,97726.91
2023-03-18T05:09:32.092Z,97718.03
2023-03-18T05:12:02.112Z,97727.19
2023-03-18T05:14:32.977Z,97714.22
2023-03-18T05:17:02.409Z,97714.59
2023-03-18T05:19:33.869Z,97719.69
2023-03-18T05:22:02.852Z,97724.91
2023-03-18T05:24:31.388Z,97727.06
2023-03-18T05:27:02.119Z,97727.78
2023-03-18T05:29:34.177Z,97729.75
2023-03-18T05:32:04.334Z,97727.94
2023-03-18T05:34:33.995Z,97726.69
2023-03-18T05:37:04.217Z,97726.44
2023-03-18T05:39:33.456Z,97727.59
2023-03-18T05:42:05.388Z,97722.56
2023-03-18T05:44:35.951Z,97725.88
2023-03-18T05:47:06.504Z,97729.97
2023-03-18T05:49:37.660Z,97721.56
2023-03-18T05:52:07.774Z,97728.72
2023-03-18T05:54:38.194Z,97731.31
2023-03-18T05:57:09.230Z,97727.28
2023-03-18T05:59:43.438Z,97735.91
2023-03-18T06:02:13.755Z,97741.47
2023-03-18T06:04:43.431Z,97743.41
2023-03-18T06:07:14.179Z,97746.19
2023-03-18T06:09:43.963Z,97753.38
2023-03-18T06:12:14.143Z,97746.56
2023-03-18T06:14:45.751Z,97748.19
2023-03-18T06:17:16.092Z,97748.19
2023-03-18T06:19:46.249Z,97755.81
2023-03-18T06:22:18.513Z,97762.78
2023-03-18T06:24:48.924Z,97755.53
2023-03-18T06:27:19.162Z,97756.50
2023-03-18T06:29:50.057Z,97763.34
2023-03-18T06:32:19.150Z,97759.72
2023-03-18T06:34:50.493Z,97768.53
2023-03-18T06:37:19.659Z,97779.91
2023-03-18T06:39:50.708Z,97775.69
2023-03-18T06:42:21.153Z,97778.47
2023-03-18T06:44:53.935Z,97778.47
2023-03-18T06:47:24.658Z,97784.66
2023-03-18T06:49:55.207Z,97780.91
2023-03-18T06:52:25.540Z,97785.75
2023-03-18T06:54:57.136Z,97784.63
2023-03-18T06:57:27.086Z,97786.22
2023-03-18T06:59:57.965Z,97787.66
2023-03-18T07:02:28.446Z,97787.47
2023-03-18T07:05:00.695Z,97789.28
2023-03-18T07:07:30.337Z,97794.31
2023-03-18T07:10:01.122Z,97795.13
2023-03-18T07:12:31.108Z,97792.34
2023-03-18T07:15:03.116Z,97799.16
2023-03-18T07:17:32.395Z,97798.97
2023-03-18T07:20:02.612Z,97796.38
2023-03-18T07:22:32.868Z,97797.72
2023-03-18T07:25:02.596Z,97806.50
2023-03-18T07:27:32.005Z,97807.47
2023-03-18T07:30:03.381Z,97813.34
2023-03-18T07:32:32.071Z,97813.97
2023-03-18T07:35:01.065Z,97812.78
2023-03-18T07:37:30.586Z,97805.66
2023-03-18T07:40:01.016Z,97816.50
2023-03-18T07:42:31.589Z,97818.13
2023-03-18T07:45:03.607Z,97812.59
2023-03-18T07:47:33.620Z,97808.16
2023-03-18T07:50:03.618Z,97811.22
2023-03-18T07:52:33.362Z,97806.66
2023-03-18T07:55:02.387Z,97804.53
2023-03-18T07:57:31.870Z,97804.97
2023-03-18T08:00:03.189Z,97800.84
2023-03-18T08:02:34.069Z,97805.53
2023-03-18T08:05:05.080Z,97805.81
2023-03-18T08:07:34.855Z,97806.91
2023-03-18T08:10:04.053Z,97799.53
2023-03-18T08:12:50.974Z,97798.81
2023-03-18T08:15:24.563Z,97809.56
2023-03-18T08:17:54.485Z,97807.41
2023-03-18T08:20:24.510Z,97808.66
2023-03-18T08:22:52.993Z,97805.72
2023-03-18T08:25:23.100Z,97804.53
2023-03-18T08:27:53.599Z,97811.78
2023-03-18T08:30:29.082Z,97820.72
2023-03-18T08:32:58.901Z,97827.19
2023-03-18T08:35:28.370Z,97822.22
2023-03-18T08:37:58.446Z,97832.75
2023-03-18T08:40:29.454Z,97819.00
2023-03-18T08:42:59.962Z,97818.06
2023-03-18T08:45:29.857Z,97816.56
2023-03-18T08:47:59.285Z,97817.44
2023-03-18T08:50:29.849Z,97809.50
2023-03-18T08:53:01.596Z,97796.56
2023-03-18T08:55:33.616Z,97797.25
2023-03-18T08:58:04.988Z,97791.50
2023-03-18T09:00:39.414Z,97788.56
2023-03-18T09:03:09.436Z,97779.38
2023-03-18T09:05:39.195Z,97770.63
2023-03-18T09:08:08.440Z,97774.13
2023-03-18T09:10:36.940Z,97767.16
2023-03-18T09:13:06.046Z,97764.38
2023-03-18T09:15:36.818Z,97764.28
2023-03-18T09:18:12.302Z,97765.13
2023-03-18T09:20:41.506Z,97759.16
2023-03-18T09:23:12.040Z,97754.97
2023-03-18T09:25:42.598Z,97756.84
2023-03-18T09:28:12.249Z,97750.03
2023-03-18T09:30:44.128Z,97754.47
2023-03-18T09:33:14.523Z,97759.97
2023-03-18T09:35:45.464Z,97755.59
2023-03-18T09:38:17.856Z,97758.47
2023-03-18T09:41:01.620Z,97751.25
2023-03-18T09:43:53.384Z,97757.34
2023-03-18T09:46:35.126Z,97754.56
2023-03-18T09:49:44.077Z,97757.81
2023-03-18T09:52:24.494Z,97752.63
2023-03-18T09:55:03.232Z,97747.41
2023-03-18T09:57:37.944Z,97746.44
2023-03-18T10:00:20.470Z,97751.50
2023-03-18T10:02:56.770Z,97752.13
2023-03-18T10:05:34.606Z,97748.75
2023-03-18T10:08:11.324Z,97749.56
2023-03-18T10:10:47.384Z,97745.56
2023-03-18T10:13:24.075Z,97753.22
2023-03-18T10:15:58.459Z,97750.81
2023-03-18T10:18:35.185Z,97756.88
2023-03-18T10:21:22.015Z,97753.44
2023-03-18T10:24:07.136Z,97751.66
2023-03-18T10:26:47.490Z,97756.09
2023-03-18T10:29:34.833Z,97757.31
2023-03-18T10:32:26.691Z,97755.69
2023-03-18T10:35:16.367Z,97769.00
2023-03-18T10:37:59.080Z,97762.97
2023-03-18T10:40:34.793Z,97762.56
2023-03-18T10:43:06.316Z,97766.22
2023-03-18T10:45:37.236Z,97766.63
2023-03-18T10:48:15.742Z,97771.03
2023-03-18T10:50:53.822Z,97772.66
2023-03-18T10:53:30.017Z,97771.41
2023-03-18T10:56:08.348Z,97771.41
2023-03-18T10:58:37.090Z,97766.97
2023-03-18T11:01:08.715Z,97761.50
2023-03-18T11:03:45.058Z,97764.94
2023-03-18T11:06:25.171Z,97770.16
2023-03-18T11:09:06.340Z,97764.88
2023-03-18T11:11:36.691Z,97759.41
2023-03-18T11:14:14.221Z,97762.59
2023-03-18T11:16:50.759Z,97748.44
2023-03-18T11:19:39.216Z,97743.97
2023-03-18T11:22:21.558Z,97744.16
2023-03-18T11:25:07.860Z,97742.13
2023-03-18T11:27:40.928Z,97743.72
2023-03-18T11:30:33.710Z,97745.72
2023-03-18T11:33:16.103Z,97745.72
2023-03-18T11:35:53.027Z,97743.03
2023-03-18T11:38:28.964Z,97740.81
2023-03-18T11:41:09.520Z,97743.81
2023-03-18T11:43:40.512Z,97744.78
2023-03-18T11:46:14.132Z,97739.09
2023-03-18T11:48:45.436Z,97741.53
2023-03-18T11:51:38.318Z,97745.97
2023-03-18T11:54:25.500Z,97740.91
2023-03-18T11:57:01.565Z,97744.69
2023-03-18T11:59:48.987Z,97743.09
2023-03-18T12:02:51.500Z,97740.25
2023-03-18T12:05:57.220Z,97744.66
2023-03-18T12:08:45.667Z,97746.88
2023-03-18T12:11:34.137Z,97744.81
2023-03-18T12:14:16.252Z,97743.00
2023-03-18T12:17:04.452Z,97738.94
2023-03-18T12:20:16.915Z,97727.75
2023-03-18T12:23:04.943Z,97724.72
2023-03-18T12:26:00.792Z,97724.28
2023-03-18T12:28:53.928Z,97723.63
2023-03-18T12:32:00.300Z,97722.63
2023-03-18T12:35:09.253Z,97727.88
2023-03-18T12:37:55.659Z,97724.38
2023-03-18T12:40:44.497Z,97723.44
2023-03-18T12:44:02.290Z,97727.00
2023-03-18T12:46:40.462Z,97723.75
2023-03-18T12:49:22.928Z,97725.72
2023-03-18T12:52:02.162Z,97724.28
2023-03-18T12:54:41.157Z,97718.00
2023-03-18T12:57:19.886Z,97712.09
2023-03-18T13:00:02.416Z,97711.22
2023-03-18T13:02:48.709Z,97714.59
2023-03-18T13:05:35.261Z,97712.97
2023-03-18T13:08:54.251Z,97710.94
2023-03-18T13:11:56.037Z,97713.28
2023-03-18T13:14:35.517Z,97706.63
2023-03-18T13:17:12.192Z,97715.69
2023-03-18T13:19:44.902Z,97712.84
2023-03-18T13:23:09.664Z,97707.56
2023-03-18T13:25:48.194Z,97701.03
2023-03-18T13:28:43.329Z,97699.00
2023-03-18T13:31:27.822Z,97688.63
2023-03-18T13:34:35.686Z,97686.91
2023-03-18T13:38:05.071Z,97690.50
2023-03-18T13:40:58.114Z,97673.03
2023-03-18T13:43:29.912Z,97675.28
2023-03-18T13:46:03.225Z,97672.81
2023-03-18T13:48:36.259Z,97673.97
2023-03-18T13:51:22.419Z,97665.09
2023-03-18T13:53:53.819Z,97657.72
2023-03-18T13:56:35.220Z,97666.31
2023-03-18T13:59:06.667Z,97669.06
2023-03-18T14:01:37.211Z,97656.16
2023-03-18T14:04:33.187Z,97658.78
2023-03-18T14:07:19.066Z,97658.47
2023-03-18T14:10:18.936Z,97662.59
2023-03-18T14:12:49.514Z,97661.56
2023-03-18T14:15:46.098Z,97662.38
2023-03-18T14:18:28.370Z,97666.13
2023-03-18T14:21:05.301Z,97653.63
2023-03-18T14:23:44.969Z,97652.25
2023-03-18T14:26:24.119Z,97659.94
2023-03-18T14:29:04.297Z,97651.94
2023-03-18T14:31:53.273Z,97651.28
2023-03-18T14:34:32.386Z,97639.25
2023-03-18T14:37:28.079Z,97641.91
2023-03-18T14:40:07.310Z,97639.97
2023-03-18T14:43:00.514Z,97640.06
2023-03-18T14:45:36.702Z,97647.50
2023-03-18T14:48:18.613Z,97639.66
2023-03-18T14:50:51.635Z,97644.81
2023-03-18T14:53:29.591Z,97643.31
2023-03-18T14:56:04.360Z,97638.16
2023-03-18T14:58:36.479Z,97634.63
2023-03-18T15:01:12.173Z,97632.53
2023-03-18T15:03:45.892Z,97640.13
2023-03-18T15:06:23.226Z,97630.81
2023-03-18T15:08:59.416Z,97632.03
2023-03-18T15:11:35.491Z,97631.69
2023-03-18T15:14:04.931Z,97627.69
2023-03-18T15:16:36.760Z,97627.22
2023-03-18T15:19:07.193Z,97624.19
2023-03-18T15:21:37.721Z,97626.34
2023-03-18T15:24:10.076Z,97622.81
2023-03-18T15:26:43.896Z,97625.53
2023-03-18T15:29:30.134Z,97626.81
2023-03-18T15:32:16.568Z,97620.31
2023-03-18T15:34:53.470Z,97612.72
2023-03-18T15:37:41.253Z,97617.09
2023-03-18T15:40:31.844Z,97614.31
2023-03-18T15:43:19.560Z,97607.03
2023-03-18T15:45:55.985Z,97610.00
2023-03-18T15:48:35.568Z,97607.34
2023-03-18T15:51:09.292Z,97615.94
2023-03-18T15:53:47.680Z,97613.03
2023-03-18T15:56:21.522Z,97610.31
2023-03-18T15:59:01.310Z,97611.13
2023-03-18T16:01:40.465Z,97614.31
2023-03-18T16:04:16.226Z,97611.13
2023-03-18T16:06:46.273Z,97602.31
2023-03-18T16:09:18.826Z,97604.94
2023-03-18T16:11:51.725Z,97596.69
2023-03-18T16:14:25.207Z,97600.84
2023-03-18T16:16:54.998Z,97611.34
2023-03-18T16:19:28.622Z,97611.56
2023-03-18T16:22:00.419Z,97608.50
2023-03-18T16:24:30.473Z,97610.25
2023-03-18T16:27:00.884Z,97610.81
2023-03-18T16:29:35.087Z,97619.91
2023-03-18T16:32:06.442Z,97612.38
2023-03-18T16:34:35.568Z,97623.53
2023-03-18T16:37:05.804Z,97616.31
2023-03-18T16:39:37.174Z,97615.66
2023-03-18T16:42:08.764Z,97624.59
2023-03-18T16:44:41.008Z,97622.09
2023-03-18T16:47:23.707Z,97632.97
2023-03-18T16:49:54.663Z,97629.66
2023-03-18T16:52:23.404Z,97630.13
2023-03-18T16:54:54.644Z,97631.88
2023-03-18T16:57:25.561Z,97637.25
2023-03-18T16:59:56.576Z,97635.75
2023-03-18T17:02:35.112Z,97646.41
2023-03-18T17:05:04.867Z,97652.44
2023-03-18T17:07:37.479Z,97661.91
2023-03-18T17:10:10.359Z,97655.84
2023-03-18T17:12:41.398Z,97654.31
2023-03-18T17:15:16.418Z,97670.19
2023-03-18T17:17:46.052Z,97668.09
2023-03-18T17:20:20.132Z,97673.38
2023-03-18T17:22:49.804Z,97673.34
2023-03-18T17:25:19.379Z,97679.03
2023-03-18T17:27:54.814Z,97681.53
2023-03-18T17:30:31.319Z,97685.25
2023-03-18T17:33:01.615Z,97684.50
2023-03-18T17:35:31.052Z,97687.75
2023-03-18T17:38:01.367Z,97689.66
2023-03-18T17:40:31.709Z,97687.53
2023-03-18T17:43:02.380Z,97683.53
2023-03-18T17:45:35.850Z,97686.66
2023-03-18T17:48:18.007Z,97689.00
2023-03-18T17:50:48.836Z,97684.59
2023-03-18T17:53:33.259Z,97692.91
2023-03-18T17:56:04.627Z,97697.22
2023-03-18T17:58:35.972Z,97700.47
2023-03-18T18:01:09.946Z,97695.28
2023-03-18T18:03:40.617Z,97702.63
2023-03-18T18:06:17.165Z,97709.16
2023-03-18T18:08:47.610Z,97705.19
2023-03-18T18:11:21.768Z,97706.25
2023-03-18T18:13:51.644Z,97711.31
2023-03-18T18:16:23.543Z,97704.50
2023-03-18T18:18:52.280Z,97705.72
2023-03-18T18:21:25.802Z,97699.72
2023-03-18T18:23:55.465Z,97702.38
2023-03-18T18:26:26.087Z,97705.84
2023-03-18T18:28:55.469Z,97712.94
2023-03-18T18:31:26.361Z,97710.94
2023-03-18T18:33:55.919Z,97716.84
2023-03-18T18:36:28.068Z,97717.25
2023-03-18T18:38:58.870Z,97718.66
2023-03-18T18:41:28.986Z,97723.75
2023-03-18T18:43:57.616Z,97726.59
2023-03-18T18:46:30.839Z,97726.84
2023-03-18T18:49:01.463Z,97727.44
2023-03-18T18:51:30.470Z,97731.09
2023-03-18T18:54:02.225Z,97725.88
2023-03-18T18:56:37.014Z,97728.91
2023-03-18T18:59:23.085Z,97730.31
2023-03-18T19:01:54.415Z,97727.50
2023-03-18T19:04:24.653Z,97736.16
2023-03-18T19:06:54.645Z,97733.38
2023-03-18T19:09:27.567Z,97726.28
2023-03-18T19:11:57.670Z,97730.53
2023-03-18T19:14:29.251Z,97737.56
2023-03-18T19:17:00.792Z,97740.38
2023-03-18T19:19:33.451Z,97736.75
2023-03-18T19:22:03.513Z,97741.59
2023-03-18T19:24:36.813Z,97747.63
2023-03-18T19:27:12.396Z,97746.41
2023-03-18T19:29:42.314Z,97745.19
2023-03-18T19:32:18.682Z,97751.66
2023-03-18T19:34:48.410Z,97751.41
2023-03-18T19:37:21.975Z,97755.25
2023-03-18T19:39:50.576Z,97759.25
2023-03-18T19:42:20.620Z,97758.03
2023-03-18T19:44:50.571Z,97762.88
2023-03-18T19:47:26.213Z,97761.47
2023-03-18T19:49:56.242Z,97764.88
2023-03-18T19:52:28.175Z,97774.13
2023-03-18T19:54:58.224Z,97776.13
2023-03-18T19:57:29.770Z,97777.53
2023-03-18T20:00:04.989Z,97773.69
2023-03-18T20:02:39.257Z,97776.88
2023-03-18T20:05:19.546Z,97779.28
2023-03-18T20:07:50.523Z,97781.28
2023-03-18T20:10:21.972Z,97786.50
2023-03-18T20:12:53.358Z,97786.50
2023-03-18T20:15:27.543Z,97784.91
2023-03-18T20:18:01.241Z,97779.44
2023-03-18T20:20:33.753Z,97782.84
2023-03-18T20:23:06.424Z,97789.25
2023-03-18T20:25:40.408Z,97789.66
2023-03-18T20:28:15.860Z,97792.88
2023-03-18T20:30:47.987Z,97786.81
2023-03-18T20:33:19.094Z,97794.03
2023-03-18T20:35:53.065Z,97791.81
2023-03-18T20:38:31.607Z,97789.19
2023-03-18T20:41:00.473Z,97789.78
2023-03-18T20:43:30.786Z,97786.38
2023-03-18T20:46:01.390Z,97784.31
2023-03-18T20:48:31.267Z,97783.13
2023-03-18T20:51:02.594Z,97796.81
2023-03-18T20:53:32.122Z,97795.19
2023-03-18T20:56:01.114Z,97798.59
2023-03-18T20:58:29.653Z,97793.13
2023-03-18T21:00:59.284Z,97803.53
2023-03-18T21:03:32.575Z,97798.88
2023-03-18T21:06:03.705Z,97807.09
2023-03-18T21:08:33.564Z,97809.72
2023-03-18T21:11:03.689Z,97808.13
2023-03-18T21:13:36.110Z,97807.91
2023-03-18T21:16:08.447Z,97805.50
2023-03-18T21:18:42.333Z,97804.66
2023-03-18T21:21:22.003Z,97803.63
2023-03-18T21:23:52.738Z,97809.50
2023-03-18T21:26:22.367Z,97807.06
2023-03-18T21:28:53.157Z,97809.50
2023-03-18T21:31:29.395Z,97810.09
2023-03-18T21:34:01.862Z,97814.13
2023-03-18T21:36:32.981Z,97799.47
2023-03-18T21:39:02.593Z,97807.09
2023-03-18T21:41:33.361Z,97797.84
2023-03-18T21:44:02.916Z,97811.47
2023-03-18T21:46:32.688Z,97808.25
2023-03-18T21:49:04.143Z,97810.66
2023-03-18T21:51:39.447Z,97811.69
2023-03-18T21:54:18.900Z,97809.88
2023-03-18T21:56:47.949Z,97812.09
2023-03-18T21:59:16.920Z,97813.91
2023-03-18T22:01:47.042Z,97810.31
2023-03-18T22:04:17.838Z,97808.47
2023-03-18T22:06:46.887Z,97814.09
2023-03-18T22:09:16.972Z,97811.84
2023-03-18T22:11:46.531Z,97810.22
2023-03-18T22:14:16.032Z,97813.47
2023-03-18T22:16:45.945Z,97806.84
2023-03-18T22:19:16.763Z,97806.19
2023-03-18T22:21:45.991Z,97807.00
2023-03-18T22:24:15.815Z,97808.19
2023-03-18T22:26:45.936Z,97799.31
2023-03-18T22:29:15.412Z,97808.34
2023-03-18T22:31:45.485Z,97817.00
2023-03-18T22:34:25.814Z,97810.97
2023-03-18T22:36:54.859Z,97808.34
2023-03-18T22:39:23.859Z,97811.78
2023-03-18T22:41:53.403Z,97815.84
2023-03-18T22:44:26.819Z,97816.81
2023-03-18T22:46:56.415Z,97822.84
2023-03-18T22:49:27.754Z,97815.84
2023-03-18T22:51:56.930Z,97812.59
2023-03-18T22:54:27.249Z,97815.84
2023-03-18T22:56:58.762Z,97815.00
2023-03-18T22:59:28.755Z,97808.00
2023-03-18T23:01:58.250Z,97809.00
2023-03-18T23:04:30.461Z,97817.81
2023-03-18T23:06:59.892Z,97813.78
2023-03-18T23:09:31.734Z,97811.56
2023-03-18T23:12:01.336Z,97820.19
2023-03-18T23:14:31.956Z,97821.19
2023-03-18T23:17:01.940Z,97819.56
2023-03-18T23:19:32.643Z,97824.19
2023-03-18T23:22:01.728Z,97825.78
2023-03-18T23:24:32.688Z,97818.97
2023-03-18T23:27:03.196Z,97826.16
2023-03-18T23:29:32.875Z,97827.97
2023-03-18T23:32:01.605Z,97827.53
2023-03-18T23:34:31.887Z,97828.53
2023-03-18T23:37:01.499Z,97827.91
2023-03-18T23:39:33.615Z,97818.09
2023-03-18T23:42:02.143Z,97816.47
2023-03-18T23:44:32.093Z,97828.91
2023-03-18T23:47:02.137Z,97818.81
2023-03-18T23:49:33.786Z,97815.06
2023-03-18T23:52:04.893Z,97821.06
2023-03-18T23:54:35.378Z,97824.69
2023-03-18T23:57:07.235Z,97823.06
2023-03-18T23:59:38.319Z,97822.47
